Time;durP1;ratioP1;P1;durP2;ratioP2;P2;SDS_P1;SDS_P2;PMS_P1;PMS_P2;Temp;Humidity;BMP_temperature;BMP_pressure;BME280_temperature;BME280_humidity;BME280_pressure;Samples;Min_cycle;Max_cycle;Signal;HPM_P1;HPM_P2
2023/01/01 00:00:17;;;;;;;21.67;4.68;;;11.70;99.90;;;11.72;97.93;99606.16;4946120;28;20253;-74
2023/01/01 00:02:45;;;;;;;21.17;4.60;;;11.60;99.90;;;11.62;98.36;99604.44;4941259;28;20285;-74
2023/01/01 00:05:12;;;;;;;30.67;6.38;;;11.60;99.90;;;11.58;98.58;99613.31;4943280;28;20945;-73
2023/01/01 00:07:39;;;;;;;32.05;6.68;;;11.50;99.90;;;11.66;98.48;99627.34;4942389;28;20316;-74
2023/01/01 00:12:57;;;;;;;28.10;5.93;;;11.60;99.90;;;11.79;98.14;99634.38;4937317;28;20237;-74
2023/01/01 00:15:26;;;;;;;24.45;4.72;;;11.70;99.90;;;11.91;97.71;99643.09;4941752;28;20320;-74
2023/01/01 00:17:53;;;;;;;29.35;5.97;;;11.80;99.90;;;11.92;97.35;99643.09;4945818;28;20301;-74
2023/01/01 00:20:21;;;;;;;26.02;5.25;;;11.80;99.90;;;11.89;96.84;99634.28;4942320;28;20226;-74
2023/01/01 00:22:48;;;;;;;18.85;4.20;;;11.80;99.90;;;11.88;96.76;99636.06;4942540;28;20691;-74
2023/01/01 00:25:23;;;;;;;17.02;3.75;;;11.80;99.90;;;11.92;96.96;99632.50;4942556;28;20248;-73
2023/01/01 00:27:51;;;;;;;19.88;4.22;;;11.80;99.90;;;11.94;96.76;99630.69;4942602;28;20773;-74
2023/01/01 00:30:18;;;;;;;31.83;6.50;;;11.80;99.90;;;11.84;97.10;99635.22;4941926;28;20248;-74
2023/01/01 00:32:45;;;;;;;37.92;8.40;;;11.80;99.90;;;11.83;96.70;99629.94;4941236;28;20248;-73
2023/01/01 00:35:24;;;;;;;30.08;6.30;;;11.80;99.90;;;11.95;96.57;99644.84;4943273;28;20286;-73
2023/01/01 00:37:53;;;;;;;24.35;5.03;;;11.80;99.90;;;11.99;96.85;99646.56;4942167;28;20236;-74
2023/01/01 00:40:20;;;;;;;25.08;5.30;;;11.90;99.90;;;11.95;96.48;99632.47;4941711;28;20241;-73
2023/01/01 00:42:47;;;;;;;36.75;7.38;;;11.90;99.90;;;11.86;96.42;99629.91;4941642;28;20301;-74
2023/01/01 00:45:15;;;;;;;27.40;5.53;;;11.80;99.90;;;11.82;96.96;99631.69;4940120;28;20297;-73
2023/01/01 00:47:49;;;;;;;25.52;5.20;;;11.70;99.90;;;11.84;96.66;99636.97;4941845;28;20244;-73
2023/01/01 00:50:16;;;;;;;26.63;5.50;;;11.80;99.90;;;11.88;96.82;99638.72;4939861;28;20230;-73
2023/01/01 00:52:44;;;;;;;24.98;5.38;;;11.80;99.90;;;11.88;96.65;99644.00;4940515;28;20240;-74
2023/01/01 00:55:11;;;;;;;21.58;4.70;;;11.80;99.90;;;11.81;96.80;99637.00;4940265;28;20226;-73
2023/01/01 00:57:38;;;;;;;25.20;5.15;;;11.80;99.90;;;11.77;97.42;99640.53;4937833;28;20229;-73
2023/01/01 01:00:07;;;;;;;22.52;4.60;;;11.70;99.90;;;11.75;97.84;99650.28;4939811;28;20233;-73
2023/01/01 01:02:34;;;;;;;25.48;5.15;;;11.70;99.90;;;11.78;97.78;99655.56;4939351;28;20272;-73
2023/01/01 01:05:03;;;;;;;22.88;4.47;;;11.70;99.90;;;11.66;98.00;99645.00;4940745;28;20236;-73
2023/01/01 01:07:35;;;;;;;25.85;5.07;;;11.60;99.90;;;11.70;97.96;99657.34;4940682;28;20234;-73
2023/01/01 01:10:03;;;;;;;19.00;3.80;;;11.60;99.90;;;11.74;98.20;99653.81;4942440;28;20261;-73
2023/01/01 01:12:32;;;;;;;28.75;5.65;;;11.70;99.90;;;11.79;98.33;99663.50;4940989;28;20234;-74
2023/01/01 01:15:00;;;;;;;13.98;2.83;;;11.70;99.90;;;11.71;98.62;99652.06;4942671;28;20328;-74
2023/01/01 01:17:28;;;;;;;15.13;3.33;;;11.70;99.90;;;11.86;98.41;99656.38;4942566;28;20264;-74
2023/01/01 01:19:55;;;;;;;17.10;3.60;;;11.80;99.90;;;11.85;97.88;99646.69;4941752;28;20233;-74
2023/01/01 01:22:22;;;;;;;20.55;4.38;;;11.80;99.90;;;11.91;98.05;99643.97;4940516;28;20765;-74
2023/01/01 01:24:56;;;;;;;10.40;2.13;;;11.80;99.90;;;11.79;98.03;99652.91;4941403;28;20340;-73
2023/01/01 01:27:23;;;;;;;22.33;4.55;;;11.70;99.90;;;11.79;98.33;99657.34;4938421;28;20237;-74
2023/01/01 01:29:50;;;;;;;15.88;3.45;;;11.70;99.90;;;11.76;98.62;99668.81;4939155;28;20242;-74
2023/01/01 01:32:17;;;;;;;16.50;3.58;;;11.70;99.90;;;11.66;98.84;99661.78;4940943;28;20238;-74
2023/01/01 01:34:45;;;;;;;18.55;4.10;;;11.60;99.90;;;11.69;99.09;99675.00;4940929;28;20574;-74
2023/01/01 01:37:12;;;;;;;26.65;5.38;;;11.60;99.90;;;11.68;99.21;99678.53;4937302;28;20329;-73
2023/01/01 01:39:39;;;;;;;19.85;4.03;;;11.60;99.90;;;11.67;99.34;99687.38;4938702;28;20229;-73
2023/01/01 01:42:07;;;;;;;20.30;4.10;;;11.60;99.90;;;11.69;99.57;99687.38;4939527;28;20340;-73
2023/01/01 01:44:48;;;;;;;22.33;4.25;;;11.60;99.90;;;11.74;99.08;99697.06;4940704;28;20288;-73
2023/01/01 01:47:40;;;;;;;27.27;5.60;;;12.60;99.90;;;11.78;98.93;99696.19;4941476;28;20233;-74
2023/01/01 01:50:28;;;;;;;15.60;3.08;;;11.70;99.90;;;11.92;98.53;99700.50;4941770;28;20295;-74
2023/01/01 01:53:04;;;;;;;20.52;4.07;;;11.80;99.90;;;11.90;97.93;99687.25;4937953;28;20284;-73
2023/01/01 01:55:36;;;;;;;29.25;5.63;;;11.80;99.90;;;11.98;97.66;99679.25;4940128;28;20249;-73
2023/01/01 01:58:08;;;;;;;16.38;3.33;;;11.90;99.90;;;11.92;97.81;99679.31;4942578;28;20256;-74
2023/01/01 02:00:41;;;;;;;12.60;2.75;;;11.80;99.90;;;11.87;97.63;99675.81;4945404;28;20841;-73
2023/01/01 02:03:22;;;;;;;22.35;4.57;;;11.80;99.90;;;12.01;97.16;99693.34;4939496;28;20308;-74
2023/01/01 02:05:51;;;;;;;30.45;6.07;;;11.90;99.90;;;11.95;97.16;99685.47;4936818;28;20583;-73
2023/01/01 02:08:20;;;;;;;19.90;4.40;;;11.90;99.90;;;11.92;97.21;99679.31;4973252;28;20257;-73
2023/01/01 02:10:47;;;;;;;24.13;5.10;;;11.90;99.90;;;11.85;97.51;99692.59;4951801;28;20277;-74
2023/01/01 02:13:15;;;;;;;24.75;5.10;;;11.80;99.90;;;11.77;97.41;99690.88;4966733;28;20225;-73
2023/01/01 02:15:52;;;;;;;21.08;4.05;;;11.70;99.90;;;11.70;97.75;99686.47;4986844;28;20229;-74
2023/01/01 02:18:27;;;;;;;24.80;5.22;;;11.70;99.90;;;11.72;98.09;99704.16;4960567;28;20332;-73
2023/01/01 02:21:06;;;;;;;16.20;3.33;;;11.70;99.90;;;11.79;98.13;99712.97;4984373;28;20292;-74
2023/01/01 02:23:52;;;;;;;27.10;5.30;;;11.70;99.90;;;11.63;98.56;99703.28;4953987;28;20228;-73
2023/01/01 02:26:46;;;;;;;10.90;2.42;;;11.70;99.90;;;11.76;98.19;99705.00;4949653;28;20642;-74
2023/01/01 02:29:28;;;;;;;14.70;3.10;;;11.70;99.90;;;11.59;98.69;99699.78;4953731;28;20289;-73
2023/01/01 02:32:09;;;;;;;21.20;4.32;;;11.50;99.90;;;11.53;98.89;99694.53;4949669;28;20256;-73
2023/01/01 02:34:44;;;;;;;19.65;3.95;;;11.50;99.90;;;11.60;99.27;99713.91;4941733;28;20233;-74
2023/01/01 02:37:15;;;;;;;20.73;4.35;;;11.50;99.90;;;11.55;99.20;99709.53;4951120;28;20240;-74
2023/01/01 02:39:53;;;;;;;15.25;3.35;;;11.50;99.90;;;11.63;99.14;99720.06;4974284;28;20292;-73
2023/01/01 02:42:22;;;;;;;13.90;3.05;;;11.50;99.90;;;11.52;99.22;99713.97;4950679;28;20238;-74
2023/01/01 02:44:53;;;;;;;15.85;3.35;;;12.40;99.90;;;11.33;100.00;99717.59;4947019;28;20245;-73
2023/01/01 02:47:21;;;;;;;12.35;3.22;;;11.30;99.90;;;11.25;100.00;99735.28;4954407;28;20237;-73
2023/01/01 02:50:09;;;;;;;14.80;3.28;;;11.20;99.90;;;11.21;100.00;99753.84;4958471;28;20269;-74
2023/01/01 02:52:55;;;;;;;7.50;1.70;;;11.20;99.90;;;11.10;100.00;99755.66;4947292;28;20292;-73
2023/01/01 02:55:48;;;;;;;20.08;4.15;;;11.10;99.90;;;11.27;100.00;99767.94;4963140;28;20241;-74
2023/01/01 03:01:39;;;;;;;13.07;2.95;;;11.10;99.90;;;11.16;100.00;99766.22;4946948;28;20699;-74
2023/01/01 03:04:22;;;;;;;20.13;3.95;;;11.10;99.90;;;11.11;100.00;99775.06;4940344;28;20225;-73
2023/01/01 03:07:41;;;;;;;25.85;5.65;;;11.10;99.90;;;11.14;100.00;99786.50;4943760;28;20237;-73
2023/01/01 03:10:14;;;;;;;18.70;3.75;;;11.10;99.90;;;11.14;100.00;99778.56;4943249;28;20229;-73
2023/01/01 03:13:11;;;;;;;20.67;4.55;;;11.10;99.90;;;10.99;100.00;99770.69;4944520;28;20233;-73
2023/01/01 03:16:04;;;;;;;31.33;6.82;;;11.00;99.90;;;10.97;100.00;99777.75;4942925;28;20295;-73
2023/01/01 03:18:43;;;;;;;15.52;3.05;;;10.90;99.90;;;10.98;100.00;99778.63;4944414;28;20242;-73
2023/01/01 03:21:16;;;;;;;24.65;4.95;;;10.90;99.90;;;11.08;100.00;99793.59;4942554;28;20336;-73
2023/01/01 03:23:48;;;;;;;19.50;4.10;;;10.90;99.90;;;10.98;100.00;99782.16;4943721;28;20372;-73
2023/01/01 03:26:18;;;;;;;26.60;5.35;;;10.90;99.90;;;11.03;100.00;99790.06;4937576;28;20254;-74
2023/01/01 03:28:54;;;;;;;26.90;5.55;;;11.00;99.90;;;10.96;100.00;99794.50;4919337;28;20261;-73
2023/01/01 03:31:25;;;;;;;27.52;5.72;;;10.90;99.90;;;11.12;100.00;99803.28;4939142;28;20284;-74
2023/01/01 03:34:01;;;;;;;14.57;3.20;;;11.00;99.90;;;11.13;100.00;99810.31;4946891;28;20320;-74
2023/01/01 03:36:37;;;;;;;26.83;5.22;;;11.00;99.90;;;11.05;100.00;99798.88;4954370;28;20257;-73
2023/01/01 03:39:32;;;;;;;17.58;3.90;;;11.70;99.90;;;10.97;100.00;99798.03;4929543;28;20285;-74
2023/01/01 03:42:34;;;;;;;17.52;3.53;;;10.90;99.90;;;10.94;100.00;99809.50;4943958;28;20236;-74
2023/01/01 03:45:16;;;;;;;20.95;4.25;;;10.80;99.90;;;10.96;100.00;99810.38;4944395;28;20617;-73
2023/01/01 03:47:43;;;;;;;33.95;6.88;;;10.90;99.90;;;10.95;100.00;99813.03;4925984;28;20284;-74
2023/01/01 03:50:12;;;;;;;24.75;5.05;;;10.90;99.90;;;10.94;100.00;99833.31;4946778;28;20309;-73
2023/01/01 03:53:11;;;;;;;6.45;1.48;;;10.80;99.90;;;10.89;100.00;99824.50;4957224;28;20248;-73
2023/01/01 03:56:20;;;;;;;17.02;3.95;;;10.80;99.90;;;10.88;100.00;99831.56;4950165;28;20237;-73
2023/01/01 03:59:00;;;;;;;10.90;2.60;;;10.80;99.90;;;10.96;100.00;99839.47;4944971;28;20234;-73
2023/01/01 04:01:36;;;;;;;5.88;1.35;;;10.90;99.90;;;10.93;100.00;99844.78;4944705;28;20256;-73
2023/01/01 04:04:05;;;;;;;5.47;1.38;;;10.80;99.90;;;11.02;100.00;99847.41;4947408;28;20288;-73
2023/01/01 04:06:33;;;;;;;25.33;5.03;;;10.90;99.90;;;10.97;100.00;99845.66;4941222;28;20233;-73
2023/01/01 04:09:02;;;;;;;10.75;2.30;;;10.90;99.90;;;10.90;100.00;99842.13;4949245;28;20277;-73
2023/01/01 04:14:49;;;;;;;30.30;6.15;;;10.80;99.90;;;10.96;100.00;99847.41;4944851;28;20233;-73
2023/01/01 04:17:17;;;;;;;26.95;5.65;;;10.80;99.90;;;10.98;100.00;99852.69;4942421;28;20811;-73
2023/01/01 04:19:44;;;;;;;17.67;3.97;;;10.90;99.90;;;10.85;100.00;99836.84;4951335;28;20295;-73
2023/01/01 04:22:22;;;;;;;25.92;5.47;;;10.80;99.90;;;10.85;100.00;99844.78;4947107;28;20316;-73
2023/01/01 04:24:49;;;;;;;24.33;5.07;;;10.80;99.90;;;11.04;100.00;99856.22;4942207;28;20702;-73
2023/01/01 04:27:16;;;;;;;16.17;3.50;;;10.90;99.90;;;10.81;100.00;99852.72;4942301;28;20304;-73
2023/01/01 04:29:43;;;;;;;18.08;3.88;;;10.80;99.90;;;10.82;100.00;99858.03;4943669;28;20710;-73
2023/01/01 04:32:10;;;;;;;23.98;4.97;;;10.70;99.90;;;10.88;100.00;99859.78;4941292;28;20238;-72
2023/01/01 04:34:37;;;;;;;15.93;3.17;;;10.80;99.90;;;10.85;100.00;99855.38;4944030;28;20230;-73
2023/01/01 04:37:05;;;;;;;23.15;4.93;;;10.80;99.90;;;10.96;100.00;99865.94;4942923;28;20824;-73
2023/01/01 04:39:39;;;;;;;26.92;5.40;;;10.90;99.90;;;10.93;100.00;99863.28;4941499;28;20241;-73
2023/01/01 04:42:06;;;;;;;17.92;3.63;;;10.90;99.90;;;10.83;100.00;99856.25;4942768;28;20289;-73
2023/01/01 04:44:33;;;;;;;17.75;3.63;;;10.80;99.90;;;10.81;100.00;99858.03;4944323;28;20229;-73
2023/01/01 04:47:04;;;;;;;27.88;5.60;;;10.80;99.90;;;10.74;100.00;99865.09;4944178;28;20240;-73
2023/01/01 04:49:31;;;;;;;17.13;3.45;;;10.70;99.90;;;10.77;100.00;99865.06;4943783;28;20244;-73
2023/01/01 04:51:58;;;;;;;21.98;4.38;;;10.70;99.90;;;10.70;100.00;99868.59;4945339;28;20297;-73
2023/01/01 04:54:25;;;;;;;22.88;4.47;;;10.60;99.90;;;10.77;100.00;99875.66;4944523;28;20237;-73
2023/01/01 04:56:53;;;;;;;25.17;5.05;;;10.60;99.90;;;10.87;100.00;99868.59;4943215;28;20235;-73
2023/01/01 04:59:20;;;;;;;24.42;5.13;;;10.70;99.90;;;10.80;100.00;99857.13;4947781;28;20238;-73
2023/01/01 05:01:47;;;;;;;25.23;5.15;;;10.70;99.90;;;10.70;100.00;99855.38;4941457;28;20295;-73
2023/01/01 05:04:15;;;;;;;18.70;3.97;;;10.70;99.90;;;10.58;100.00;99855.41;4943078;28;20248;-73
2023/01/01 05:06:43;;;;;;;16.73;3.65;;;10.50;99.90;;;10.71;100.00;99867.72;4944153;28;20234;-73
2023/01/01 05:09:11;;;;;;;7.25;1.77;;;10.60;99.90;;;10.79;100.00;99865.06;4948948;28;20253;-73
2023/01/01 05:11:38;;;;;;;19.05;4.35;;;10.70;99.90;;;10.78;100.00;99863.31;4947402;28;20285;-73
2023/01/01 05:14:06;;;;;;;14.07;2.85;;;10.70;99.90;;;10.68;100.00;99851.88;4944695;28;20234;-73
2023/01/01 05:16:37;;;;;;;23.75;4.72;;;10.60;99.90;;;10.91;100.00;99870.34;4943181;28;20356;-74
2023/01/01 05:19:06;;;;;;;17.98;3.65;;;10.80;99.90;;;11.08;98.95;99873.84;4942940;28;20233;-73
2023/01/01 05:21:39;;;;;;;25.02;4.95;;;10.90;99.90;;;11.15;97.92;99866.78;4942777;28;20244;-73
2023/01/01 05:24:09;;;;;;;17.98;3.63;;;11.00;99.90;;;11.11;97.59;99863.25;4944298;28;20226;-73
2023/01/01 05:26:40;;;;;;;26.98;5.25;;;11.00;99.90;;;11.22;96.55;99873.81;4943040;28;20304;-73
2023/01/01 05:29:07;;;;;;;23.77;4.68;;;11.10;99.90;;;11.22;95.99;99876.47;4956879;28;20230;-73
2023/01/01 05:31:43;;;;;;;29.35;6.13;;;11.10;99.90;;;11.19;95.72;99865.88;4941647;28;20229;-73
2023/01/01 05:34:11;;;;;;;23.55;4.95;;;11.10;99.90;;;11.03;96.09;99866.81;4944204;28;20238;-73
2023/01/01 05:36:38;;;;;;;15.45;3.30;;;11.00;99.90;;;11.01;96.17;99869.44;4944059;28;20245;-73
2023/01/01 05:39:11;;;;;;;11.95;2.38;;;11.00;99.90;;;10.96;96.86;99873.00;4945175;28;20257;-73
2023/01/01 05:41:39;;;;;;;8.95;1.90;;;10.90;99.90;;;10.97;96.36;99880.94;4943311;28;20236;-73
2023/01/01 05:44:08;;;;;;;20.02;4.00;;;10.90;99.90;;;10.92;96.86;99882.69;4944733;28;20241;-73
2023/01/01 05:46:36;;;;;;;9.18;1.88;;;10.90;99.90;;;10.74;97.40;99878.31;4951822;28;20229;-73
2023/01/01 05:49:03;;;;;;;22.10;4.50;;;10.70;99.90;;;10.74;97.84;99890.66;4952006;28;20694;-73
2023/01/01 05:51:31;;;;;;;8.48;1.75;;;10.70;99.90;;;10.70;98.57;99902.09;4952356;28;20312;-73
2023/01/01 05:54:00;;;;;;;14.40;2.92;;;10.60;99.90;;;10.69;98.90;99903.00;4950323;28;20240;-73
2023/01/01 05:56:27;;;;;;;10.20;2.05;;;10.60;99.90;;;10.64;99.46;99923.25;4950340;28;20229;-73
2023/01/01 05:58:55;;;;;;;17.60;3.63;;;10.60;99.90;;;10.75;99.10;99932.97;4951318;28;20379;-73
2023/01/01 06:01:31;;;;;;;11.50;2.60;;;10.60;99.90;;;10.74;99.03;99925.03;4950261;28;20280;-73
2023/01/01 06:03:59;;;;;;;13.77;2.80;;;10.60;99.90;;;10.58;99.18;99919.72;4951650;28;20237;-73
2023/01/01 06:06:29;;;;;;;13.02;2.65;;;10.60;99.90;;;10.68;99.63;99914.44;4950804;28;20323;-73
2023/01/01 06:09:00;;;;;;;6.70;1.55;;;10.60;99.90;;;10.99;98.31;99932.06;4952388;28;20327;-72
2023/01/01 06:11:29;;;;;;;19.20;3.88;;;10.80;99.90;;;10.88;97.98;99921.50;4951270;28;20229;-73
2023/01/01 06:13:58;;;;;;;22.58;4.35;;;10.80;99.90;;;10.75;98.12;99911.81;4949896;28;20245;-73
2023/01/01 06:16:27;;;;;;;16.00;3.22;;;10.70;99.90;;;10.76;98.07;99915.31;4949218;28;20240;-72
2023/01/01 06:18:54;;;;;;;22.27;4.60;;;10.70;99.90;;;10.72;98.35;99918.84;4948598;28;20229;-73
2023/01/01 06:21:25;;;;;;;20.63;4.25;;;10.60;99.90;;;10.75;97.85;99921.50;4952860;28;20250;-72
2023/01/01 06:23:55;;;;;;;14.27;3.03;;;10.70;99.90;;;10.60;98.28;99929.44;4949571;28;20234;-73
2023/01/01 06:26:26;;;;;;;22.13;4.65;;;10.60;99.90;;;10.62;98.04;99931.19;4950724;28;20245;-73
2023/01/01 06:28:55;;;;;;;19.70;4.07;;;10.60;99.90;;;10.72;97.94;99947.94;4947723;28;20301;-74
2023/01/01 06:31:22;;;;;;;13.88;2.92;;;10.60;99.90;;;10.69;97.64;99934.72;4941724;28;20684;-74
2023/01/01 06:33:50;;;;;;;21.25;4.40;;;10.70;99.90;;;10.72;96.98;99932.97;4939408;28;20236;-73
2023/01/01 06:36:20;;;;;;;17.50;3.72;;;10.70;99.90;;;10.76;97.02;99939.13;4950030;28;20229;-73
2023/01/01 06:38:51;;;;;;;10.75;2.47;;;10.70;99.90;;;10.79;96.22;99925.91;4953777;28;20265;-73
2023/01/01 06:41:22;;;;;;;11.85;2.60;;;10.70;99.90;;;10.69;96.26;99910.91;4962019;28;20309;-73
2023/01/01 06:43:49;;;;;;;26.35;5.28;;;10.60;99.90;;;10.73;96.03;99915.31;4957454;28;20236;-73
2023/01/01 06:46:23;;;;;;;9.80;2.42;;;10.70;99.90;;;10.80;95.92;99927.66;4951260;28;20284;-73
2023/01/01 06:48:55;;;;;;;19.05;4.05;;;10.70;99.90;;;10.75;95.68;99927.66;4949631;28;20234;-73
2023/01/01 06:51:25;;;;;;;18.00;4.00;;;10.70;99.90;;;10.73;95.62;99931.19;4951495;28;20300;-73
2023/01/01 06:53:53;;;;;;;16.90;3.53;;;10.60;99.90;;;10.81;95.28;99935.59;4950111;28;20690;-74
2023/01/01 06:56:20;;;;;;;24.40;5.13;;;10.70;99.90;;;10.71;95.28;99914.44;4949362;28;20234;-73
2023/01/01 06:58:47;;;;;;;35.78;7.38;;;10.70;99.90;;;10.95;94.35;99935.59;4944996;28;20242;-74
2023/01/01 07:01:21;;;;;;;16.85;3.65;;;10.80;99.90;;;10.96;94.17;99928.53;4947558;28;20266;-73
2023/01/01 07:03:54;;;;;;;18.95;3.95;;;10.80;99.90;;;11.19;92.49;99921.47;4948052;28;20261;-73
2023/01/01 07:06:22;;;;;;;17.15;3.72;;;11.10;99.90;;;10.93;92.90;99907.38;4947520;28;20249;-76
2023/01/01 07:08:50;;;;;;;19.60;4.38;;;10.90;99.90;;;10.92;92.90;99916.19;4951720;28;20293;-78
2023/01/01 07:11:17;;;;;;;19.73;4.43;;;10.90;99.90;;;10.74;93.31;99909.16;4945211;28;20249;-76
2023/01/01 07:13:45;;;;;;;17.92;3.70;;;10.70;99.90;;;10.97;92.49;99912.66;4956625;28;20235;-74
2023/01/01 07:16:12;;;;;;;31.27;6.30;;;10.80;99.90;;;11.13;91.77;99913.53;4950543;28;20245;-74
2023/01/01 07:18:40;;;;;;;18.23;3.80;;;11.00;99.90;;;11.32;90.77;99924.97;4949603;28;20238;-74
2023/01/01 07:21:29;;;;;;;16.80;3.40;;;11.10;99.90;;;11.25;90.44;99910.88;4946496;28;20333;-73
2023/01/01 07:23:59;;;;;;;26.08;5.05;;;11.10;99.90;;;11.70;88.61;99909.88;4947968;28;20233;-72
2023/01/01 07:26:29;;;;;;;18.05;3.60;;;11.60;99.90;;;11.69;87.70;99896.59;4948555;28;20260;-74
2023/01/01 07:28:57;;;;;;;8.63;1.85;;;11.50;99.90;;;11.76;86.91;99885.13;4947016;28;20687;-74
2023/01/01 07:31:37;;;;;;;15.25;2.97;;;11.70;99.90;;;11.99;86.21;99885.91;4947842;28;20674;-74
2023/01/01 07:34:06;;;;;;;18.23;3.67;;;11.80;99.90;;;11.75;86.06;99865.72;4944340;28;20229;-74
2023/01/01 07:36:33;;;;;;;11.55;2.30;;;11.70;99.90;;;11.49;86.77;99864.91;4948977;28;20237;-73
2023/01/01 07:39:00;;;;;;;7.18;1.55;;;10.90;99.90;;;11.57;87.52;99899.31;4948946;28;20274;-74
2023/01/01 07:41:27;;;;;;;8.38;1.70;;;11.40;99.90;;;11.40;87.75;99896.72;4947173;28;20237;-74
2023/01/01 07:43:55;;;;;;;13.85;3.10;;;11.30;99.90;;;11.64;86.93;99920.47;4947787;28;20253;-74
2023/01/01 07:46:22;;;;;;;20.40;4.28;;;11.50;99.90;;;11.79;86.81;99928.41;4947484;28;20297;-74
2023/01/01 07:48:49;;;;;;;18.25;3.78;;;11.60;99.90;;;11.61;86.80;99903.69;4948278;28;20320;-73
2023/01/01 07:51:16;;;;;;;14.48;3.25;;;11.60;99.90;;;11.65;86.39;99911.63;4947844;28;20265;-73
2023/01/01 07:53:43;;;;;;;20.25;4.05;;;11.50;99.90;;;11.61;86.53;99901.94;4947066;28;20237;-74
2023/01/01 07:56:10;;;;;;;17.83;3.72;;;11.50;99.90;;;11.58;86.70;99907.25;4948264;28;20237;-74
2023/01/01 07:58:41;;;;;;;9.93;2.03;;;11.50;99.90;;;11.91;85.88;99929.25;4946344;28;20230;-74
2023/01/01 08:01:13;;;;;;;17.20;3.50;;;11.70;99.90;;;12.12;84.90;99924.72;4946835;28;20238;-73
2023/01/01 08:03:41;;;;;;;17.17;3.72;;;12.00;99.90;;;12.03;84.38;99892.09;4957393;28;20225;-73
2023/01/01 08:06:12;;;;;;;28.05;5.55;;;11.90;99.90;;;11.97;84.71;99876.22;4946504;28;20251;-74
2023/01/01 08:08:40;;;;;;;11.23;2.30;;;11.90;99.90;;;11.82;84.93;99882.47;4948307;28;20285;-72
2023/01/01 08:11:07;;;;;;;19.23;3.95;;;11.80;99.90;;;11.91;85.21;99893.03;4945738;28;20284;-73
2023/01/01 08:13:34;;;;;;;13.10;2.65;;;11.80;99.90;;;11.97;85.20;99903.59;4951207;28;20600;-74
2023/01/01 08:16:02;;;;;;;19.13;3.75;;;11.90;99.90;;;12.22;84.38;99906.13;4944704;28;20823;-74
2023/01/01 08:18:29;;;;;;;21.33;4.20;;;12.00;99.90;;;12.05;84.27;99870.00;4946329;28;20232;-73
2023/01/01 08:20:56;;;;;;;8.02;1.80;;;12.00;99.90;;;12.16;84.07;99869.91;4945678;28;20253;-74
2023/01/01 08:23:24;;;;;;;14.88;3.17;;;12.10;99.90;;;12.20;83.91;99870.78;4948072;28;20238;-74
2023/01/01 08:25:51;;;;;;;15.35;3.25;;;12.10;99.90;;;12.24;84.08;99868.09;4974244;28;20234;-76
2023/01/01 08:28:18;;;;;;;13.30;2.92;;;12.10;99.90;;;12.40;83.39;99880.34;4946831;28;20238;-75
2023/01/01 08:30:45;;;;;;;16.08;3.47;;;12.20;99.90;;;12.30;83.38;99860.09;4946789;28;20238;-75
2023/01/01 08:33:12;;;;;;;18.67;4.07;;;12.20;99.90;;;12.37;83.65;99883.03;4944707;28;20230;-75
2023/01/01 08:35:41;;;;;;;27.67;5.38;;;12.30;99.90;;;12.31;83.98;99880.44;4947057;28;20294;-76
2023/01/01 08:38:11;;;;;;;11.43;2.45;;;12.20;99.90;;;12.37;83.49;99874.19;4976495;28;20321;-77
2023/01/01 08:40:39;;;;;;;23.95;4.80;;;12.30;99.90;;;12.47;83.38;99881.19;4943974;28;20237;-76
2023/01/01 08:43:06;;;;;;;19.63;3.95;;;12.30;99.90;;;12.42;83.78;99875.91;4944164;28;20284;-75
2023/01/01 08:45:34;;;;;;;20.48;3.90;;;12.30;99.90;;;12.44;83.88;99878.56;4943494;28;20233;-76
2023/01/01 08:48:01;;;;;;;15.50;3.15;;;12.30;99.90;;;12.45;83.65;99890.94;4944335;28;20229;-76
2023/01/01 08:50:28;;;;;;;23.98;4.45;;;12.30;99.90;;;12.44;84.00;99886.53;4941720;28;20265;-76
2023/01/01 08:52:57;;;;;;;13.85;3.00;;;12.40;99.90;;;12.72;83.28;99887.19;4945074;28;20227;-75
2023/01/01 08:55:25;;;;;;;18.75;4.07;;;12.50;99.90;;;12.66;83.18;99889.88;4939299;28;20236;-74
2023/01/01 08:57:52;;;;;;;14.93;3.20;;;12.50;99.90;;;12.72;83.17;99887.19;4950319;28;20240;-75
2023/01/01 09:00:19;;;;;;;18.10;3.95;;;12.60;99.90;;;12.61;84.07;99908.50;4954235;28;20226;-75
2023/01/01 09:02:46;;;;;;;14.95;3.17;;;12.50;99.90;;;12.71;83.67;99917.25;4941368;28;20238;-75
2023/01/01 09:05:14;;;;;;;16.35;3.30;;;12.60;99.90;;;12.79;83.17;99897.72;4948594;28;20234;-74
2023/01/01 09:07:41;;;;;;;21.02;4.32;;;12.70;99.90;;;12.82;82.74;99883.56;4943304;28;20288;-76
2023/01/01 09:10:08;;;;;;;20.13;3.97;;;12.70;99.90;;;12.79;82.97;99883.59;4948029;28;20292;-76
2023/01/01 09:12:35;;;;;;;9.40;2.00;;;12.70;99.90;;;12.78;82.59;99876.50;4945561;28;20225;-77
2023/01/01 09:15:03;;;;;;;26.65;5.05;;;12.70;99.90;;;12.79;83.17;99894.19;4956931;28;20260;-75
2023/01/01 09:17:30;;;;;;;14.05;2.92;;;12.70;99.90;;;12.90;83.19;99916.22;4949381;28;20232;-75
2023/01/01 09:19:57;;;;;;;19.25;4.18;;;12.70;99.90;;;13.00;82.82;99911.69;4959945;28;20292;-76
2023/01/01 09:22:24;;;;;;;14.95;3.38;;;12.90;99.90;;;13.04;83.00;99913.47;4948995;28;20233;-75
2023/01/01 09:24:51;;;;;;;16.85;3.53;;;12.90;99.90;;;13.18;82.48;99916.91;4948777;28;20233;-74
2023/01/01 09:27:18;;;;;;;18.23;3.83;;;13.00;99.90;;;13.12;82.35;99903.66;4945751;28;20237;-74
2023/01/01 09:29:45;;;;;;;16.25;3.50;;;13.00;99.90;;;13.15;82.47;99908.94;4952400;28;20230;-74
2023/01/01 09:32:12;;;;;;;12.43;2.88;;;13.00;99.90;;;13.17;82.49;99899.22;4953001;28;20280;-75
2023/01/01 09:34:39;;;;;;;13.07;2.80;;;13.00;99.90;;;13.22;82.42;99904.47;4949191;28;20280;-74
2023/01/01 09:37:06;;;;;;;5.93;1.35;;;13.10;99.90;;;13.30;82.51;99915.91;4953559;28;20654;-74
2023/01/01 09:39:34;;;;;;;8.95;1.83;;;13.10;99.90;;;13.38;82.04;99929.97;4959420;28;20230;-74
2023/01/01 09:42:31;;;;;;;7.47;1.60;;;13.20;99.90;;;13.38;82.54;99932.63;4931467;28;20238;-75
2023/01/01 09:45:22;;;;;;;7.63;1.58;;;13.20;99.90;;;13.53;82.27;99950.19;4951027;28;20249;-75
2023/01/01 09:47:54;;;;;;;17.48;3.80;;;13.30;99.90;;;13.61;82.63;99941.22;4949409;28;20257;-75
2023/01/01 09:50:34;;;;;;;8.02;1.75;;;13.40;99.90;;;13.79;81.78;99934.81;4951373;28;20273;-75
2023/01/01 09:53:30;;;;;;;6.20;1.27;;;13.50;99.90;;;13.82;81.16;99921.50;4942299;28;20233;-77
2023/01/01 09:56:02;;;;;;;8.85;1.88;;;13.70;99.90;;;13.97;80.74;99918.66;4938624;28;20325;-76
2023/01/01 09:58:36;;;;;;;8.30;1.73;;;13.80;99.90;;;14.20;79.91;99883.75;4949631;28;20232;-74
2023/01/01 10:01:38;;;;;;;7.72;1.60;;;14.10;99.90;;;14.26;79.68;99878.34;4940632;28;20243;-75
2023/01/01 10:04:24;;;;;;;12.77;2.67;;;14.10;99.90;;;14.43;79.48;99885.25;4942317;28;20229;-75
2023/01/01 10:07:37;;;;;;;12.82;2.85;;;14.20;99.90;;;14.45;78.86;99856.84;4945377;28;20264;-75
2023/01/01 10:10:34;;;;;;;11.05;2.35;;;14.30;99.90;;;14.71;77.85;99838.69;4940185;28;20237;-76
2023/01/01 10:13:29;;;;;;;9.13;1.92;;;14.50;99.90;;;14.76;78.08;99842.13;4945670;28;20230;-75
2023/01/01 10:16:12;;;;;;;13.98;2.78;;;14.60;99.90;;;14.88;77.08;99811.75;4939751;28;20303;-75
2023/01/01 10:18:41;;;;;;;7.25;1.65;;;14.70;99.90;;;14.91;77.26;99827.69;4939223;28;20581;-75
2023/01/01 10:21:23;;;;;;;10.07;2.13;;;14.70;99.90;;;14.82;78.28;99826.06;4946517;28;20232;-75
2023/01/01 10:24:04;;;;;;;7.10;1.58;;;14.70;99.90;;;14.87;77.75;99824.19;4951966;28;20225;-75
2023/01/01 10:26:33;;;;;;;10.45;2.13;;;14.70;99.90;;;14.88;78.55;99830.41;4949008;28;20239;-74
2023/01/01 10:29:14;;;;;;;13.40;2.83;;;14.70;99.90;;;15.04;78.27;99835.41;4935049;28;20249;-75
2023/01/01 10:31:45;;;;;;;22.63;4.68;;;14.90;99.90;;;15.01;78.56;99816.81;4931286;28;20256;-75
2023/01/01 10:34:31;;;;;;;16.52;3.53;;;14.80;99.90;;;15.03;78.29;99823.00;4949315;28;20300;-76
2023/01/01 10:36:59;;;;;;;13.50;2.70;;;14.80;99.90;;;14.88;78.30;99793.13;4949406;28;20692;-76
2023/01/01 10:39:27;;;;;;;23.73;4.80;;;14.80;99.90;;;14.94;78.02;99793.88;4957196;28;20300;-77
2023/01/01 10:41:57;;;;;;;11.68;2.55;;;14.70;99.90;;;15.19;78.53;99806.72;4949264;28;20232;-75